createdAt,value
2023-01-23T00:00:56.027Z,-0.10
2023-01-23T00:05:18.046Z,-0.10
2023-01-23T00:09:39.793Z,-0.10
2023-01-23T00:14:03.687Z,-0.20
2023-01-23T00:18:25.607Z,-0.10
2023-01-23T00:22:47.647Z,-0.10
2023-01-23T00:27:09.727Z,-0.10
2023-01-23T00:31:38.532Z,-0.20
2023-01-23T00:36:01.701Z,-0.20
2023-01-23T00:40:26.587Z,-0.10
2023-01-23T00:44:48.627Z,-0.20
2023-01-23T00:49:10.670Z,-0.10
2023-01-23T00:53:32.946Z,-0.10
2023-01-23T00:57:55.350Z,-0.10
2023-01-23T01:02:17.156Z,-0.10
2023-01-23T01:06:39.288Z,-0.10
2023-01-23T01:11:01.934Z,-0.10
2023-01-23T01:15:24.312Z,-0.10
2023-01-23T01:19:46.574Z,-0.10
2023-01-23T01:24:09.891Z,-0.10
2023-01-23T01:28:33.947Z,-0.10
2023-01-23T01:32:56.871Z,-0.10
2023-01-23T01:37:20.353Z,-0.10
2023-01-23T01:41:42.091Z,-0.10
2023-01-23T01:46:20.314Z,-0.10
2023-01-23T01:50:43.415Z,-0.10
2023-01-23T01:55:06.388Z,-0.10
2023-01-23T01:59:33.609Z,0.00
2023-01-23T02:03:55.866Z,-0.10
2023-01-23T02:08:41.852Z,0.00
2023-01-23T02:13:38.954Z,0.00
2023-01-23T02:18:00.987Z,-0.10
2023-01-23T02:22:49.726Z,0.00
2023-01-23T02:27:11.581Z,0.00
2023-01-23T02:31:33.798Z,0.00
2023-01-23T02:35:56.246Z,-0.10
2023-01-23T02:40:21.483Z,-0.10
2023-01-23T02:44:44.505Z,0.00
2023-01-23T02:49:09.518Z,0.00
2023-01-23T02:53:31.967Z,0.00
2023-01-23T02:57:53.872Z,0.00
2023-01-23T03:02:16.026Z,0.00
2023-01-23T03:06:38.297Z,0.00
2023-01-23T03:11:04.748Z,0.00
2023-01-23T03:15:27.103Z,0.00
2023-01-23T03:19:49.425Z,0.00
2023-01-23T03:24:13.888Z,0.00
2023-01-23T03:28:54.566Z,0.00
2023-01-23T03:33:16.407Z,0.00
2023-01-23T03:37:38.535Z,0.00
2023-01-23T03:42:00.807Z,0.10
2023-01-23T03:46:25.325Z,0.00
2023-01-23T03:50:47.671Z,0.10
2023-01-23T03:55:10.147Z,0.10
2023-01-23T03:59:33.405Z,0.10
2023-01-23T04:03:55.691Z,0.10
2023-01-23T04:08:17.786Z,0.00
2023-01-23T04:12:45.325Z,0.00
2023-01-23T04:17:11.791Z,0.10
2023-01-23T04:21:33.846Z,0.00
2023-01-23T04:25:56.025Z,0.00
2023-01-23T04:30:18.239Z,0.10
2023-01-23T04:34:41.599Z,0.10
2023-01-23T04:39:05.247Z,0.00
2023-01-23T04:43:28.070Z,0.00
2023-01-23T04:47:50.506Z,0.10
2023-01-23T04:52:12.391Z,0.00
2023-01-23T04:56:39.667Z,0.00
2023-01-23T05:01:07.193Z,0.00
2023-01-23T05:05:32.714Z,0.00
2023-01-23T05:09:56.482Z,0.00
2023-01-23T05:14:19.090Z,0.00
2023-01-23T05:18:42.757Z,0.10
2023-01-23T05:23:04.931Z,0.10
2023-01-23T05:27:35.107Z,0.10
2023-01-23T05:31:57.880Z,0.10
2023-01-23T05:36:40.078Z,0.10
2023-01-23T05:41:03.716Z,0.10
2023-01-23T05:45:44.927Z,0.10
2023-01-23T05:50:20.412Z,0.10
2023-01-23T05:54:42.869Z,0.10
2023-01-23T05:59:06.535Z,0.10
2023-01-23T06:03:37.786Z,0.10
2023-01-23T06:08:32.809Z,0.00
2023-01-23T06:12:55.680Z,0.00
2023-01-23T06:17:18.007Z,0.10
2023-01-23T06:21:40.467Z,0.10
2023-01-23T06:26:03.748Z,0.00
2023-01-23T06:30:26.967Z,0.00
2023-01-23T06:34:50.335Z,0.00
2023-01-23T06:39:15.346Z,0.00
2023-01-23T06:43:38.209Z,0.00
2023-01-23T06:48:05.013Z,0.00
2023-01-23T06:52:27.221Z,0.00
2023-01-23T06:56:49.627Z,0.00
2023-01-23T07:01:16.347Z,0.00
2023-01-23T07:06:08.069Z,0.00
2023-01-23T07:10:30.546Z,0.00
2023-01-23T07:14:52.907Z,0.00
2023-01-23T07:19:20.713Z,0.00
2023-01-23T07:23:42.966Z,0.10
2023-01-23T07:28:05.851Z,0.10
2023-01-23T07:32:27.708Z,0.10
2023-01-23T07:36:49.867Z,0.10
2023-01-23T07:41:11.867Z,0.10
2023-01-23T07:45:33.778Z,0.20
2023-01-23T07:49:55.486Z,0.20
2023-01-23T07:54:17.953Z,0.20
2023-01-23T07:58:39.770Z,0.20
2023-01-23T08:03:01.707Z,0.20
2023-01-23T08:07:24.273Z,0.20
2023-01-23T08:11:46.254Z,0.30
2023-01-23T08:16:08.824Z,0.30
2023-01-23T08:20:30.882Z,0.30
2023-01-23T08:24:52.967Z,0.40
2023-01-23T08:29:15.009Z,0.40
2023-01-23T08:33:38.736Z,0.30
2023-01-23T08:38:02.688Z,0.30
2023-01-23T08:42:25.889Z,0.30
2023-01-23T08:46:48.055Z,0.30
2023-01-23T08:51:13.203Z,0.40
2023-01-23T08:55:36.368Z,0.40
2023-01-23T08:59:58.430Z,0.30
2023-01-23T09:04:20.409Z,0.40
2023-01-23T09:08:43.126Z,0.40
2023-01-23T09:13:05.566Z,0.40
2023-01-23T09:17:28.007Z,0.30
2023-01-23T09:21:49.926Z,0.30
2023-01-23T09:26:14.096Z,0.40
2023-01-23T09:30:37.238Z,0.30
2023-01-23T09:34:59.427Z,0.40
2023-01-23T09:39:22.292Z,0.40
2023-01-23T09:44:05.438Z,0.50
2023-01-23T09:48:44.372Z,0.50
2023-01-23T09:53:17.172Z,0.50
2023-01-23T09:58:01.508Z,0.60
2023-01-23T10:02:26.767Z,0.50
2023-01-23T10:07:19.153Z,0.50
2023-01-23T10:12:06.746Z,0.70
2023-01-23T10:16:55.960Z,0.70
2023-01-23T10:21:44.507Z,0.60
2023-01-23T10:26:47.766Z,0.70
2023-01-23T10:31:57.357Z,0.80
2023-01-23T10:36:54.698Z,0.80
2023-01-23T10:41:21.776Z,0.80
2023-01-23T10:45:47.437Z,0.90
2023-01-23T10:50:10.687Z,1.00
2023-01-23T10:54:47.222Z,1.00
2023-01-23T10:59:22.673Z,0.90
2023-01-23T11:03:46.067Z,0.90
2023-01-23T11:08:38.724Z,0.80
2023-01-23T11:13:01.290Z,0.80
2023-01-23T11:17:33.598Z,0.80
2023-01-23T11:22:20.566Z,0.90
2023-01-23T11:26:42.467Z,1.00
2023-01-23T11:31:15.055Z,1.00
2023-01-23T11:36:06.586Z,1.10
2023-01-23T11:40:28.280Z,1.20
2023-01-23T11:44:51.454Z,1.20
2023-01-23T11:49:27.266Z,1.30
2023-01-23T11:54:05.721Z,1.20
2023-01-23T11:58:49.846Z,1.40
2023-01-23T12:03:37.109Z,1.40
2023-01-23T12:08:18.407Z,1.50
2023-01-23T12:12:52.546Z,1.60
2023-01-23T12:17:27.013Z,1.40
2023-01-23T12:22:14.732Z,1.30
2023-01-23T12:26:46.807Z,1.30
2023-01-23T12:31:41.214Z,1.50
2023-01-23T12:36:48.560Z,1.30
2023-01-23T12:41:46.067Z,1.20
2023-01-23T12:46:35.545Z,1.10
2023-01-23T12:51:14.464Z,1.10
2023-01-23T12:55:58.774Z,1.10
2023-01-23T13:00:39.292Z,1.00
2023-01-23T13:05:07.573Z,0.90
2023-01-23T13:09:50.151Z,0.90
2023-01-23T13:14:23.301Z,0.90
2023-01-23T13:19:20.886Z,1.00
2023-01-23T13:23:43.488Z,1.00
2023-01-23T13:28:50.633Z,1.00
2023-01-23T13:33:15.687Z,1.00
2023-01-23T13:37:40.814Z,1.10
2023-01-23T13:42:15.074Z,1.00
2023-01-23T14:20:26.251Z,0.60
2023-01-23T14:24:55.228Z,0.60
2023-01-23T14:29:26.086Z,0.50
2023-01-23T14:33:49.658Z,0.50
2023-01-23T14:38:27.127Z,0.40
2023-01-23T14:43:09.731Z,0.30
2023-01-23T14:47:39.391Z,0.20
2023-01-23T14:52:07.086Z,0.30
2023-01-23T14:56:36.990Z,0.40
2023-01-23T15:01:01.553Z,0.40
2023-01-23T15:05:28.752Z,0.30
2023-01-23T15:09:50.587Z,0.30
2023-01-23T15:14:33.327Z,0.20
2023-01-23T15:19:06.575Z,0.20
2023-01-23T15:23:37.951Z,0.20
2023-01-23T15:27:59.849Z,0.20
2023-01-23T15:32:26.629Z,0.20
2023-01-23T15:36:57.897Z,0.20
2023-01-23T15:41:33.856Z,0.20
2023-01-23T15:45:56.679Z,0.10
2023-01-23T15:50:18.620Z,0.10
2023-01-23T15:54:40.767Z,0.10
2023-01-23T15:59:05.088Z,0.10
2023-01-23T16:04:04.499Z,0.10
2023-01-23T16:09:12.791Z,0.10
2023-01-23T16:14:40.687Z,0.10
2023-01-23T16:20:19.828Z,0.10
2023-01-23T16:25:56.970Z,0.10
2023-01-23T16:31:36.550Z,0.00
2023-01-23T16:38:25.469Z,0.00
2023-01-23T16:44:05.097Z,0.10
2023-01-23T17:00:56.910Z,0.00
2023-01-23T17:11:36.537Z,0.00
2023-01-23T17:17:31.394Z,0.10
2023-01-23T17:40:33.923Z,0.00
2023-01-23T17:52:46.488Z,0.00
2023-01-23T18:03:02.752Z,0.00
2023-01-23T18:07:24.989Z,0.00
2023-01-23T18:11:52.582Z,0.00
2023-01-23T18:16:28.910Z,0.00
2023-01-23T18:20:54.846Z,0.00
2023-01-23T18:25:19.984Z,0.00
2023-01-23T18:30:14.692Z,0.00
2023-01-23T18:34:42.632Z,0.00
2023-01-23T18:39:36.193Z,0.00
2023-01-23T18:44:15.990Z,0.10
2023-01-23T18:48:42.395Z,0.00
2023-01-23T18:53:36.310Z,0.00
2023-01-23T18:58:26.742Z,0.00
2023-01-23T19:02:52.789Z,0.00
2023-01-23T19:07:20.091Z,0.10
2023-01-23T19:12:26.154Z,0.10
2023-01-23T19:17:08.576Z,0.10
2023-01-23T19:21:32.010Z,0.10
2023-01-23T19:25:54.305Z,0.00
2023-01-23T19:30:17.162Z,0.00
2023-01-23T19:34:39.863Z,0.00
2023-01-23T19:39:06.818Z,0.00
2023-01-23T19:43:28.963Z,0.00
2023-01-23T19:47:53.457Z,0.00
2023-01-23T19:52:16.395Z,0.00
2023-01-23T19:56:39.501Z,0.00
2023-01-23T20:01:01.623Z,0.00
2023-01-23T20:05:24.585Z,0.00
2023-01-23T20:09:46.803Z,0.00
2023-01-23T20:14:08.951Z,0.00
2023-01-23T20:18:31.252Z,0.00
2023-01-23T20:22:54.316Z,0.00
2023-01-23T20:27:16.521Z,0.00
2023-01-23T20:31:38.672Z,0.00
2023-01-23T20:36:01.480Z,0.00
2023-01-23T20:40:23.410Z,0.00
2023-01-23T20:44:45.301Z,0.00
2023-01-23T20:49:09.110Z,0.00
2023-01-23T20:53:31.862Z,0.00
2023-01-23T20:58:12.931Z,0.00
2023-01-23T21:02:35.045Z,0.00
2023-01-23T21:06:57.631Z,0.00
2023-01-23T21:11:20.976Z,0.00
2023-01-23T21:15:43.117Z,0.00
2023-01-23T21:20:05.583Z,0.00
2023-01-23T21:24:27.715Z,0.00
2023-01-23T21:28:51.874Z,0.00
2023-01-23T21:33:13.854Z,0.00
2023-01-23T21:37:36.159Z,0.00
2023-01-23T21:42:02.694Z,0.10
2023-01-23T21:46:29.687Z,0.10
2023-01-23T21:51:15.771Z,0.00
2023-01-23T21:55:44.283Z,0.10
2023-01-23T22:00:27.152Z,0.10
2023-01-23T22:04:54.577Z,0.10
2023-01-23T22:09:27.434Z,0.10
2023-01-23T22:13:56.318Z,0.00
2023-01-23T22:18:30.710Z,0.10
2023-01-23T22:22:54.009Z,0.10
2023-01-23T22:27:32.691Z,0.10
2023-01-23T22:31:57.366Z,0.10
2023-01-23T22:36:21.134Z,0.10
2023-01-23T22:41:06.435Z,0.10
2023-01-23T22:45:29.306Z,0.10
2023-01-23T22:49:51.252Z,0.10
2023-01-23T22:54:13.413Z,0.10
2023-01-23T22:58:37.359Z,0.10
2023-01-23T23:02:59.199Z,0.00
2023-01-23T23:07:21.251Z,0.00
2023-01-23T23:11:44.252Z,0.00
2023-01-23T23:16:17.953Z,0.00
2023-01-23T23:20:39.911Z,0.00
2023-01-23T23:25:02.111Z,0.00
2023-01-23T23:29:24.302Z,0.00
2023-01-23T23:33:45.902Z,0.00
2023-01-23T23:38:07.962Z,0.00
2023-01-23T23:42:29.780Z,0.00
2023-01-23T23:46:51.945Z,0.00
2023-01-23T23:51:18.807Z,0.00
2023-01-23T23:55:40.666Z,0.00
